sensor_id;sensor_type;location;lat;lon;timestamp;temperature;humidity
21259;DHT22;10787;53.364;-1.480;2022-10-19T00:00:27;10.80;99.90
21259;DHT22;10787;53.364;-1.480;2022-10-19T00:02:53;10.80;99.90
21259;DHT22;10787;53.364;-1.480;2022-10-19T00:05:19;10.80;99.90
21259;DHT22;10787;53.364;-1.480;2022-10-19T00:07:45;10.80;99.90
21259;DHT22;10787;53.364;-1.480;2022-10-19T00:10:10;10.80;99.90
21259;DHT22;10787;53.364;-1.480;2022-10-19T00:12:37;10.80;99.90
21259;DHT22;10787;53.364;-1.480;2022-10-19T00:15:04;10.80;99.90
21259;DHT22;10787;53.364;-1.480;2022-10-19T00:17:30;10.80;99.90
21259;DHT22;10787;53.364;-1.480;2022-10-19T00:19:56;10.80;99.90
21259;DHT22;10787;53.364;-1.480;2022-10-19T00:22:22;10.80;99.90
21259;DHT22;10787;53.364;-1.480;2022-10-19T00:24:48;10.80;99.90
21259;DHT22;10787;53.364;-1.480;2022-10-19T00:27:14;10.80;99.90
21259;DHT22;10787;53.364;-1.480;2022-10-19T00:29:40;10.80;99.90
21259;DHT22;10787;53.364;-1.480;2022-10-19T00:32:06;10.80;99.90
21259;DHT22;10787;53.364;-1.480;2022-10-19T00:34:32;10.90;99.90
21259;DHT22;10787;53.364;-1.480;2022-10-19T00:36:57;10.80;99.90
21259;DHT22;10787;53.364;-1.480;2022-10-19T00:39:23;10.80;99.90
21259;DHT22;10787;53.364;-1.480;2022-10-19T00:41:49;10.80;99.90
21259;DHT22;10787;53.364;-1.480;2022-10-19T00:46:43;10.80;99.90
21259;DHT22;10787;53.364;-1.480;2022-10-19T00:49:23;10.80;99.90
21259;DHT22;10787;53.364;-1.480;2022-10-19T00:51:54;10.80;99.90
21259;DHT22;10787;53.364;-1.480;2022-10-19T00:54:20;10.80;99.90
21259;DHT22;10787;53.364;-1.480;2022-10-19T00:56:49;10.80;99.90
21259;DHT22;10787;53.364;-1.480;2022-10-19T00:59:20;10.70;99.90
21259;DHT22;10787;53.364;-1.480;2022-10-19T01:01:48;10.70;99.90
21259;DHT22;10787;53.364;-1.480;2022-10-19T01:04:15;10.70;99.90
21259;DHT22;10787;53.364;-1.480;2022-10-19T01:06:42;10.70;99.90
21259;DHT22;10787;53.364;-1.480;2022-10-19T01:09:08;10.70;99.90
21259;DHT22;10787;53.364;-1.480;2022-10-19T01:34:07;10.80;99.90
21259;DHT22;10787;53.364;-1.480;2022-10-19T01:36:42;10.80;99.90
21259;DHT22;10787;53.364;-1.480;2022-10-19T01:39:11;10.70;99.90
21259;DHT22;10787;53.364;-1.480;2022-10-19T01:47:03;10.70;99.90
21259;DHT22;10787;53.364;-1.480;2022-10-19T01:52:14;10.70;99.90
21259;DHT22;10787;53.364;-1.480;2022-10-19T01:54:45;10.70;99.90
21259;DHT22;10787;53.364;-1.480;2022-10-19T01:57:16;10.70;99.90
21259;DHT22;10787;53.364;-1.480;2022-10-19T01:59:44;10.70;99.90
21259;DHT22;10787;53.364;-1.480;2022-10-19T02:02:16;10.70;99.90
21259;DHT22;10787;53.364;-1.480;2022-10-19T02:04:46;10.70;99.90
21259;DHT22;10787;53.364;-1.480;2022-10-19T02:07:15;10.70;99.90
21259;DHT22;10787;53.364;-1.480;2022-10-19T02:09:44;10.70;99.90
21259;DHT22;10787;53.364;-1.480;2022-10-19T02:12:15;10.70;99.90
21259;DHT22;10787;53.364;-1.480;2022-10-19T02:14:47;10.60;99.90
21259;DHT22;10787;53.364;-1.480;2022-10-19T02:17:21;10.60;99.90
21259;DHT22;10787;53.364;-1.480;2022-10-19T02:19:48;10.60;99.90
21259;DHT22;10787;53.364;-1.480;2022-10-19T02:22:14;10.50;99.90
21259;DHT22;10787;53.364;-1.480;2022-10-19T02:24:40;10.50;99.90
21259;DHT22;10787;53.364;-1.480;2022-10-19T02:27:07;10.50;99.90
21259;DHT22;10787;53.364;-1.480;2022-10-19T02:29:34;10.50;99.90
21259;DHT22;10787;53.364;-1.480;2022-10-19T02:32:01;10.50;99.90
21259;DHT22;10787;53.364;-1.480;2022-10-19T02:34:27;10.60;99.90
21259;DHT22;10787;53.364;-1.480;2022-10-19T02:36:54;10.50;99.90
21259;DHT22;10787;53.364;-1.480;2022-10-19T02:39:20;10.50;99.90
21259;DHT22;10787;53.364;-1.480;2022-10-19T02:42:00;10.60;99.90
21259;DHT22;10787;53.364;-1.480;2022-10-19T02:47:17;10.50;99.90
21259;DHT22;10787;53.364;-1.480;2022-10-19T02:49:44;10.50;99.90
21259;DHT22;10787;53.364;-1.480;2022-10-19T02:52:12;10.50;99.90
21259;DHT22;10787;53.364;-1.480;2022-10-19T02:54:40;10.50;99.90
21259;DHT22;10787;53.364;-1.480;2022-10-19T02:57:21;10.50;99.90
21259;DHT22;10787;53.364;-1.480;2022-10-19T02:59:48;10.50;99.90
21259;DHT22;10787;53.364;-1.480;2022-10-19T03:02:15;10.50;99.90
21259;DHT22;10787;53.364;-1.480;2022-10-19T03:04:41;10.50;99.90
21259;DHT22;10787;53.364;-1.480;2022-10-19T03:07:09;10.60;99.90
21259;DHT22;10787;53.364;-1.480;2022-10-19T03:09:35;10.60;99.90
21259;DHT22;10787;53.364;-1.480;2022-10-19T03:12:01;10.60;99.90
21259;DHT22;10787;53.364;-1.480;2022-10-19T03:14:27;10.50;99.90
21259;DHT22;10787;53.364;-1.480;2022-10-19T03:16:53;10.50;99.90
21259;DHT22;10787;53.364;-1.480;2022-10-19T03:19:19;10.50;99.90
21259;DHT22;10787;53.364;-1.480;2022-10-19T03:21:44;10.50;99.90
21259;DHT22;10787;53.364;-1.480;2022-10-19T03:24:10;10.50;99.90
21259;DHT22;10787;53.364;-1.480;2022-10-19T03:26:37;10.50;99.90
21259;DHT22;10787;53.364;-1.480;2022-10-19T03:29:03;10.50;99.90
21259;DHT22;10787;53.364;-1.480;2022-10-19T03:31:28;10.50;99.90
21259;DHT22;10787;53.364;-1.480;2022-10-19T03:33:54;10.50;99.90
21259;DHT22;10787;53.364;-1.480;2022-10-19T03:36:28;10.50;99.90
21259;DHT22;10787;53.364;-1.480;2022-10-19T03:38:57;10.50;99.90
21259;DHT22;10787;53.364;-1.480;2022-10-19T03:41:25;10.60;99.90
21259;DHT22;10787;53.364;-1.480;2022-10-19T03:43:51;10.60;99.90
21259;DHT22;10787;53.364;-1.480;2022-10-19T03:46:17;10.60;99.90
21259;DHT22;10787;53.364;-1.480;2022-10-19T03:48:43;10.60;99.90
21259;DHT22;10787;53.364;-1.480;2022-10-19T03:51:12;10.60;99.90
21259;DHT22;10787;53.364;-1.480;2022-10-19T03:53:39;10.60;99.90
21259;DHT22;10787;53.364;-1.480;2022-10-19T03:56:10;10.60;99.90
21259;DHT22;10787;53.364;-1.480;2022-10-19T03:58:37;10.60;99.90
21259;DHT22;10787;53.364;-1.480;2022-10-19T04:01:09;10.60;99.90
21259;DHT22;10787;53.364;-1.480;2022-10-19T04:03:35;10.60;99.90
21259;DHT22;10787;53.364;-1.480;2022-10-19T04:06:13;10.60;99.90
21259;DHT22;10787;53.364;-1.480;2022-10-19T04:08:41;10.60;99.90
21259;DHT22;10787;53.364;-1.480;2022-10-19T04:11:16;10.60;99.90
21259;DHT22;10787;53.364;-1.480;2022-10-19T04:13:42;10.60;99.90
21259;DHT22;10787;53.364;-1.480;2022-10-19T04:16:12;10.50;99.90
21259;DHT22;10787;53.364;-1.480;2022-10-19T04:18:39;10.50;99.90
21259;DHT22;10787;53.364;-1.480;2022-10-19T04:21:33;10.50;99.90
21259;DHT22;10787;53.364;-1.480;2022-10-19T04:24:09;10.50;99.90
21259;DHT22;10787;53.364;-1.480;2022-10-19T04:26:44;10.50;99.90
21259;DHT22;10787;53.364;-1.480;2022-10-19T04:29:11;10.50;99.90
21259;DHT22;10787;53.364;-1.480;2022-10-19T04:31:38;10.50;99.90
21259;DHT22;10787;53.364;-1.480;2022-10-19T04:34:04;10.40;99.90
21259;DHT22;10787;53.364;-1.480;2022-10-19T04:36:31;10.50;99.90
21259;DHT22;10787;53.364;-1.480;2022-10-19T04:38:57;10.50;99.90
21259;DHT22;10787;53.364;-1.480;2022-10-19T04:41:23;10.40;99.90
21259;DHT22;10787;53.364;-1.480;2022-10-19T04:43:54;10.40;99.90
21259;DHT22;10787;53.364;-1.480;2022-10-19T04:46:20;10.40;99.90
21259;DHT22;10787;53.364;-1.480;2022-10-19T04:48:47;10.40;99.90
21259;DHT22;10787;53.364;-1.480;2022-10-19T04:51:14;10.40;99.90
21259;DHT22;10787;53.364;-1.480;2022-10-19T04:53:41;10.30;99.90
21259;DHT22;10787;53.364;-1.480;2022-10-19T04:56:11;10.30;99.90
21259;DHT22;10787;53.364;-1.480;2022-10-19T04:58:38;10.40;99.90
21259;DHT22;10787;53.364;-1.480;2022-10-19T05:01:12;10.30;99.90
21259;DHT22;10787;53.364;-1.480;2022-10-19T05:03:38;10.30;99.90
21259;DHT22;10787;53.364;-1.480;2022-10-19T05:06:05;10.30;99.90
21259;DHT22;10787;53.364;-1.480;2022-10-19T05:08:32;10.30;99.90
21259;DHT22;10787;53.364;-1.480;2022-10-19T05:11:06;10.40;99.90
21259;DHT22;10787;53.364;-1.480;2022-10-19T05:13:33;10.40;99.90
21259;DHT22;10787;53.364;-1.480;2022-10-19T05:16:02;10.40;99.90
21259;DHT22;10787;53.364;-1.480;2022-10-19T05:18:28;10.30;99.90
21259;DHT22;10787;53.364;-1.480;2022-10-19T05:21:08;10.30;99.90
21259;DHT22;10787;53.364;-1.480;2022-10-19T05:23:35;10.30;99.90
21259;DHT22;10787;53.364;-1.480;2022-10-19T05:28:31;10.30;99.90
21259;DHT22;10787;53.364;-1.480;2022-10-19T05:31:23;10.40;99.90
21259;DHT22;10787;53.364;-1.480;2022-10-19T05:33:50;10.40;99.90
21259;DHT22;10787;53.364;-1.480;2022-10-19T05:38:52;10.40;99.90
21259;DHT22;10787;53.364;-1.480;2022-10-19T05:41:19;10.40;99.90
21259;DHT22;10787;53.364;-1.480;2022-10-19T05:43:46;10.40;99.90
21259;DHT22;10787;53.364;-1.480;2022-10-19T05:46:14;10.50;99.90
21259;DHT22;10787;53.364;-1.480;2022-10-19T05:48:43;10.50;99.90
21259;DHT22;10787;53.364;-1.480;2022-10-19T05:51:11;10.50;99.90
21259;DHT22;10787;53.364;-1.480;2022-10-19T05:53:37;10.50;99.90
21259;DHT22;10787;53.364;-1.480;2022-10-19T05:56:04;10.70;99.90
21259;DHT22;10787;53.364;-1.480;2022-10-19T05:58:31;10.90;99.90
21259;DHT22;10787;53.364;-1.480;2022-10-19T06:00:58;11.20;99.90
21259;DHT22;10787;53.364;-1.480;2022-10-19T06:03:25;11.40;99.90
21259;DHT22;10787;53.364;-1.480;2022-10-19T06:05:52;11.40;99.90
21259;DHT22;10787;53.364;-1.480;2022-10-19T06:08:18;11.40;99.90
21259;DHT22;10787;53.364;-1.480;2022-10-19T06:10:45;11.40;99.90
21259;DHT22;10787;53.364;-1.480;2022-10-19T06:13:12;11.40;99.90
21259;DHT22;10787;53.364;-1.480;2022-10-19T06:15:39;11.40;99.90
21259;DHT22;10787;53.364;-1.480;2022-10-19T06:18:07;11.30;99.90
21259;DHT22;10787;53.364;-1.480;2022-10-19T06:20:34;11.20;99.90
21259;DHT22;10787;53.364;-1.480;2022-10-19T06:23:00;11.20;99.90
21259;DHT22;10787;53.364;-1.480;2022-10-19T06:25:27;11.10;99.90
21259;DHT22;10787;53.364;-1.480;2022-10-19T06:27:53;11.00;99.90
21259;DHT22;10787;53.364;-1.480;2022-10-19T06:30:19;10.90;99.90
21259;DHT22;10787;53.364;-1.480;2022-10-19T06:32:45;10.90;99.90
21259;DHT22;10787;53.364;-1.480;2022-10-19T06:35:11;10.80;99.90
21259;DHT22;10787;53.364;-1.480;2022-10-19T06:37:36;10.80;99.90
21259;DHT22;10787;53.364;-1.480;2022-10-19T06:40:03;10.70;99.90
21259;DHT22;10787;53.364;-1.480;2022-10-19T06:42:29;10.70;99.90
21259;DHT22;10787;53.364;-1.480;2022-10-19T06:44:54;10.70;99.90
21259;DHT22;10787;53.364;-1.480;2022-10-19T06:47:20;10.70;99.90
21259;DHT22;10787;53.364;-1.480;2022-10-19T06:49:46;10.60;99.90
21259;DHT22;10787;53.364;-1.480;2022-10-19T06:52:12;10.60;99.90
21259;DHT22;10787;53.364;-1.480;2022-10-19T06:54:37;10.60;99.90
21259;DHT22;10787;53.364;-1.480;2022-10-19T06:57:03;10.60;99.90
21259;DHT22;10787;53.364;-1.480;2022-10-19T06:59:29;10.60;99.90
21259;DHT22;10787;53.364;-1.480;2022-10-19T07:01:55;10.50;99.90
21259;DHT22;10787;53.364;-1.480;2022-10-19T07:04:20;10.60;99.90
21259;DHT22;10787;53.364;-1.480;2022-10-19T07:06:46;10.60;99.90
21259;DHT22;10787;53.364;-1.480;2022-10-19T07:09:12;10.60;99.90
21259;DHT22;10787;53.364;-1.480;2022-10-19T07:11:38;10.60;99.90
21259;DHT22;10787;53.364;-1.480;2022-10-19T07:14:04;10.60;99.90
21259;DHT22;10787;53.364;-1.480;2022-10-19T07:16:29;10.70;99.90
21259;DHT22;10787;53.364;-1.480;2022-10-19T07:18:55;10.80;99.90
21259;DHT22;10787;53.364;-1.480;2022-10-19T07:21:22;10.90;99.90
21259;DHT22;10787;53.364;-1.480;2022-10-19T07:23:48;10.90;99.90
21259;DHT22;10787;53.364;-1.480;2022-10-19T07:28:42;11.00;99.90
21259;DHT22;10787;53.364;-1.480;2022-10-19T07:31:12;11.10;99.90
21259;DHT22;10787;53.364;-1.480;2022-10-19T07:33:38;11.10;99.90
21259;DHT22;10787;53.364;-1.480;2022-10-19T07:36:06;11.20;99.90
21259;DHT22;10787;53.364;-1.480;2022-10-19T07:38:33;11.30;99.90
21259;DHT22;10787;53.364;-1.480;2022-10-19T07:41:07;11.20;99.90
21259;DHT22;10787;53.364;-1.480;2022-10-19T07:43:34;11.30;99.90
21259;DHT22;10787;53.364;-1.480;2022-10-19T07:46:03;11.40;99.90
21259;DHT22;10787;53.364;-1.480;2022-10-19T07:48:29;11.40;99.90
21259;DHT22;10787;53.364;-1.480;2022-10-19T07:50:56;11.50;99.90
21259;DHT22;10787;53.364;-1.480;2022-10-19T07:53:22;11.50;99.90
21259;DHT22;10787;53.364;-1.480;2022-10-19T07:55:48;11.50;99.90
21259;DHT22;10787;53.364;-1.480;2022-10-19T07:58:14;11.60;99.90
21259;DHT22;10787;53.364;-1.480;2022-10-19T08:00:40;11.60;99.90
21259;DHT22;10787;53.364;-1.480;2022-10-19T08:03:06;11.70;99.90
21259;DHT22;10787;53.364;-1.480;2022-10-19T08:05:33;11.70;99.90
21259;DHT22;10787;53.364;-1.480;2022-10-19T08:07:59;11.80;99.90
21259;DHT22;10787;53.364;-1.480;2022-10-19T08:10:24;11.80;99.90
21259;DHT22;10787;53.364;-1.480;2022-10-19T08:12:50;11.80;99.90
21259;DHT22;10787;53.364;-1.480;2022-10-19T08:15:16;11.80;99.90
21259;DHT22;10787;53.364;-1.480;2022-10-19T08:17:42;11.70;99.90
21259;DHT22;10787;53.364;-1.480;2022-10-19T08:20:09;11.80;99.90
21259;DHT22;10787;53.364;-1.480;2022-10-19T08:22:35;11.70;99.90
21259;DHT22;10787;53.364;-1.480;2022-10-19T08:25:01;11.80;99.90
21259;DHT22;10787;53.364;-1.480;2022-10-19T08:27:27;11.70;99.90
21259;DHT22;10787;53.364;-1.480;2022-10-19T08:29:53;11.80;99.90
21259;DHT22;10787;53.364;-1.480;2022-10-19T08:32:19;11.70;99.90
21259;DHT22;10787;53.364;-1.480;2022-10-19T08:34:45;11.70;99.90
21259;DHT22;10787;53.364;-1.480;2022-10-19T08:37:11;11.80;99.90
21259;DHT22;10787;53.364;-1.480;2022-10-19T08:39:37;11.80;99.90
21259;DHT22;10787;53.364;-1.480;2022-10-19T08:42:18;11.90;99.90
21259;DHT22;10787;53.364;-1.480;2022-10-19T08:50:35;12.00;99.90
21259;DHT22;10787;53.364;-1.480;2022-10-19T09:09:04;12.50;99.90
21259;DHT22;10787;53.364;-1.480;2022-10-19T09:11:37;12.50;99.90
21259;DHT22;10787;53.364;-1.480;2022-10-19T09:16:41;12.60;99.90
21259;DHT22;10787;53.364;-1.480;2022-10-19T09:19:17;12.70;99.90
21259;DHT22;10787;53.364;-1.480;2022-10-19T09:27:23;13.10;99.90
21259;DHT22;10787;53.364;-1.480;2022-10-19T09:30:02;13.20;99.90
21259;DHT22;10787;53.364;-1.480;2022-10-19T09:32:35;13.40;99.90
21259;DHT22;10787;53.364;-1.480;2022-10-19T09:35:23;13.50;99.90
21259;DHT22;10787;53.364;-1.480;2022-10-19T09:37:51;13.70;99.90
21259;DHT22;10787;53.364;-1.480;2022-10-19T09:40:23;13.80;99.90
21259;DHT22;10787;53.364;-1.480;2022-10-19T09:42:49;13.90;99.90
21259;DHT22;10787;53.364;-1.480;2022-10-19T09:45:53;13.80;99.90
21259;DHT22;10787;53.364;-1.480;2022-10-19T09:48:34;13.80;99.90
21259;DHT22;10787;53.364;-1.480;2022-10-19T09:51:12;13.90;99.90
21259;DHT22;10787;53.364;-1.480;2022-10-19T09:53:44;13.90;99.90
21259;DHT22;10787;53.364;-1.480;2022-10-19T09:56:20;14.00;99.90
21259;DHT22;10787;53.364;-1.480;2022-10-19T09:58:57;14.20;99.90
21259;DHT22;10787;53.364;-1.480;2022-10-19T10:01:37;14.30;99.90
21259;DHT22;10787;53.364;-1.480;2022-10-19T10:04:22;14.40;99.90
21259;DHT22;10787;53.364;-1.480;2022-10-19T10:06:48;14.50;99.90
21259;DHT22;10787;53.364;-1.480;2022-10-19T10:09:21;14.60;99.90
21259;DHT22;10787;53.364;-1.480;2022-10-19T10:11:49;14.70;99.90
21259;DHT22;10787;53.364;-1.480;2022-10-19T10:14:31;14.70;99.90
21259;DHT22;10787;53.364;-1.480;2022-10-19T10:17:18;14.70;99.90
21259;DHT22;10787;53.364;-1.480;2022-10-19T10:22:35;14.80;99.90
21259;DHT22;10787;53.364;-1.480;2022-10-19T10:25:11;14.80;99.90
21259;DHT22;10787;53.364;-1.480;2022-10-19T10:27:38;14.70;99.90
21259;DHT22;10787;53.364;-1.480;2022-10-19T10:30:07;14.70;99.90
21259;DHT22;10787;53.364;-1.480;2022-10-19T10:32:37;14.60;99.90
21259;DHT22;10787;53.364;-1.480;2022-10-19T10:35:16;14.60;99.90
21259;DHT22;10787;53.364;-1.480;2022-10-19T10:37:45;14.50;99.90
21259;DHT22;10787;53.364;-1.480;2022-10-19T10:42:47;14.40;99.90
21259;DHT22;10787;53.364;-1.480;2022-10-19T10:45:23;14.30;99.90
21259;DHT22;10787;53.364;-1.480;2022-10-19T10:47:51;14.40;99.90
21259;DHT22;10787;53.364;-1.480;2022-10-19T10:50:28;14.40;99.90
21259;DHT22;10787;53.364;-1.480;2022-10-19T10:53:01;14.50;99.90
21259;DHT22;10787;53.364;-1.480;2022-10-19T10:55:29;14.60;99.90
21259;DHT22;10787;53.364;-1.480;2022-10-19T10:58:14;14.70;99.90
21259;DHT22;10787;53.364;-1.480;2022-10-19T11:00:42;14.80;99.90
21259;DHT22;10787;53.364;-1.480;2022-10-19T11:03:20;14.80;99.90
21259;DHT22;10787;53.364;-1.480;2022-10-19T11:05:56;14.90;99.90
21259;DHT22;10787;53.364;-1.480;2022-10-19T11:08:49;15.10;99.90
21259;DHT22;10787;53.364;-1.480;2022-10-19T11:11:31;15.20;99.90
21259;DHT22;10787;53.364;-1.480;2022-10-19T11:14:32;15.40;99.90
21259;DHT22;10787;53.364;-1.480;2022-10-19T11:17:06;15.60;99.90
21259;DHT22;10787;53.364;-1.480;2022-10-19T11:19:41;15.70;99.90
21259;DHT22;10787;53.364;-1.480;2022-10-19T11:22:27;16.00;99.90
21259;DHT22;10787;53.364;-1.480;2022-10-19T11:25:16;16.30;99.90
21259;DHT22;10787;53.364;-1.480;2022-10-19T11:31:28;16.80;99.90
21259;DHT22;10787;53.364;-1.480;2022-10-19T11:42:01;16.90;99.90
21259;DHT22;10787;53.364;-1.480;2022-10-19T11:45:03;16.80;99.90
21259;DHT22;10787;53.364;-1.480;2022-10-19T11:56:15;16.40;99.90
21259;DHT22;10787;53.364;-1.480;2022-10-19T11:59:14;16.30;99.90
21259;DHT22;10787;53.364;-1.480;2022-10-19T12:01:48;16.40;99.90
21259;DHT22;10787;53.364;-1.480;2022-10-19T12:12:44;16.80;99.90
21259;DHT22;10787;53.364;-1.480;2022-10-19T12:15:34;16.80;99.90
21259;DHT22;10787;53.364;-1.480;2022-10-19T12:18:27;16.70;99.90
21259;DHT22;10787;53.364;-1.480;2022-10-19T12:20:57;16.50;99.90
21259;DHT22;10787;53.364;-1.480;2022-10-19T12:23:31;16.40;99.90
21259;DHT22;10787;53.364;-1.480;2022-10-19T12:26:00;16.30;99.90
21259;DHT22;10787;53.364;-1.480;2022-10-19T12:28:37;16.40;99.90
21259;DHT22;10787;53.364;-1.480;2022-10-19T12:31:04;16.50;99.90
21259;DHT22;10787;53.364;-1.480;2022-10-19T12:39:10;16.60;99.90
21259;DHT22;10787;53.364;-1.480;2022-10-19T12:41:43;16.60;99.90
21259;DHT22;10787;53.364;-1.480;2022-10-19T12:44:26;16.50;99.90
21259;DHT22;10787;53.364;-1.480;2022-10-19T12:47:27;16.30;99.90
21259;DHT22;10787;53.364;-1.480;2022-10-19T12:49:56;16.40;99.90
21259;DHT22;10787;53.364;-1.480;2022-10-19T12:52:35;16.20;99.90
21259;DHT22;10787;53.364;-1.480;2022-10-19T12:57:40;16.20;99.90
21259;DHT22;10787;53.364;-1.480;2022-10-19T13:00:25;16.20;99.90
21259;DHT22;10787;53.364;-1.480;2022-10-19T13:03:20;16.20;99.90
21259;DHT22;10787;53.364;-1.480;2022-10-19T13:06:08;16.20;99.90
21259;DHT22;10787;53.364;-1.480;2022-10-19T13:11:08;16.00;99.90
21259;DHT22;10787;53.364;-1.480;2022-10-19T13:13:56;16.00;99.90
21259;DHT22;10787;53.364;-1.480;2022-10-19T13:19:03;16.00;99.90
21259;DHT22;10787;53.364;-1.480;2022-10-19T13:35:31;16.00;99.90
21259;DHT22;10787;53.364;-1.480;2022-10-19T13:43:39;15.90;99.90
21259;DHT22;10787;53.364;-1.480;2022-10-19T14:08:17;15.90;99.90
21259;DHT22;10787;53.364;-1.480;2022-10-19T14:11:05;15.90;99.90
21259;DHT22;10787;53.364;-1.480;2022-10-19T14:13:36;15.80;99.90
21259;DHT22;10787;53.364;-1.480;2022-10-19T14:16:02;15.80;99.90
21259;DHT22;10787;53.364;-1.480;2022-10-19T14:18:34;15.80;99.90
21259;DHT22;10787;53.364;-1.480;2022-10-19T14:21:04;15.90;99.90
21259;DHT22;10787;53.364;-1.480;2022-10-19T14:23:35;16.00;99.90
21259;DHT22;10787;53.364;-1.480;2022-10-19T14:26:02;16.20;99.90
21259;DHT22;10787;53.364;-1.480;2022-10-19T14:28:30;16.50;99.90
21259;DHT22;10787;53.364;-1.480;2022-10-19T14:31:04;16.90;99.90
21259;DHT22;10787;53.364;-1.480;2022-10-19T14:33:36;17.20;99.90
21259;DHT22;10787;53.364;-1.480;2022-10-19T14:36:12;17.30;99.90
21259;DHT22;10787;53.364;-1.480;2022-10-19T14:38:40;17.10;99.90
21259;DHT22;10787;53.364;-1.480;2022-10-19T14:41:30;16.90;99.90
21259;DHT22;10787;53.364;-1.480;2022-10-19T14:43:59;16.70;99.90
21259;DHT22;10787;53.364;-1.480;2022-10-19T14:46:29;16.60;99.90
21259;DHT22;10787;53.364;-1.480;2022-10-19T14:49:01;16.60;99.90
21259;DHT22;10787;53.364;-1.480;2022-10-19T14:51:39;16.60;99.90
21259;DHT22;10787;53.364;-1.480;2022-10-19T14:54:07;16.50;99.90
21259;DHT22;10787;53.364;-1.480;2022-10-19T14:56:51;16.50;99.90
21259;DHT22;10787;53.364;-1.480;2022-10-19T14:59:29;16.40;99.90
21259;DHT22;10787;53.364;-1.480;2022-10-19T15:01:59;16.40;99.90
21259;DHT22;10787;53.364;-1.480;2022-10-19T15:04:36;16.30;99.90
21259;DHT22;10787;53.364;-1.480;2022-10-19T15:07:04;16.30;99.90
21259;DHT22;10787;53.364;-1.480;2022-10-19T15:09:46;16.20;99.90
21259;DHT22;10787;53.364;-1.480;2022-10-19T15:12:18;16.00;99.90
21259;DHT22;10787;53.364;-1.480;2022-10-19T15:14:46;15.80;99.90
21259;DHT22;10787;53.364;-1.480;2022-10-19T15:17:30;15.70;99.90
21259;DHT22;10787;53.364;-1.480;2022-10-19T15:19:58;15.70;99.90
21259;DHT22;10787;53.364;-1.480;2022-10-19T15:30:44;15.30;99.90
21259;DHT22;10787;53.364;-1.480;2022-10-19T15:35:38;15.10;99.90
21259;DHT22;10787;53.364;-1.480;2022-10-19T15:38:25;15.10;99.90
21259;DHT22;10787;53.364;-1.480;2022-10-19T15:41:03;15.00;99.90
21259;DHT22;10787;53.364;-1.480;2022-10-19T15:48:46;15.10;99.90
21259;DHT22;10787;53.364;-1.480;2022-10-19T15:53:52;15.00;99.90
21259;DHT22;10787;53.364;-1.480;2022-10-19T15:56:19;14.90;99.90
21259;DHT22;10787;53.364;-1.480;2022-10-19T15:58:48;14.80;99.90
21259;DHT22;10787;53.364;-1.480;2022-10-19T16:01:17;14.70;99.90
21259;DHT22;10787;53.364;-1.480;2022-10-19T16:03:44;14.60;99.90
21259;DHT22;10787;53.364;-1.480;2022-10-19T16:06:10;14.50;99.90
21259;DHT22;10787;53.364;-1.480;2022-10-19T16:08:36;14.40;99.90
21259;DHT22;10787;53.364;-1.480;2022-10-19T16:11:02;14.30;99.90
21259;DHT22;10787;53.364;-1.480;2022-10-19T16:13:29;14.30;99.90
21259;DHT22;10787;53.364;-1.480;2022-10-19T16:16:05;14.30;99.90
21259;DHT22;10787;53.364;-1.480;2022-10-19T16:18:32;14.30;99.90
21259;DHT22;10787;53.364;-1.480;2022-10-19T16:20:58;14.20;99.90
21259;DHT22;10787;53.364;-1.480;2022-10-19T16:23:26;14.10;99.90
21259;DHT22;10787;53.364;-1.480;2022-10-19T16:25:52;14.00;99.90
21259;DHT22;10787;53.364;-1.480;2022-10-19T16:28:18;13.90;99.90
21259;DHT22;10787;53.364;-1.480;2022-10-19T16:30:50;13.80;99.90
21259;DHT22;10787;53.364;-1.480;2022-10-19T16:33:16;13.80;99.90
21259;DHT22;10787;53.364;-1.480;2022-10-19T16:35:42;13.70;99.90
21259;DHT22;10787;53.364;-1.480;2022-10-19T16:38:08;13.60;99.90
21259;DHT22;10787;53.364;-1.480;2022-10-19T16:40:34;13.60;99.90
21259;DHT22;10787;53.364;-1.480;2022-10-19T16:43:00;13.50;99.90
21259;DHT22;10787;53.364;-1.480;2022-10-19T16:45:26;13.50;99.90
21259;DHT22;10787;53.364;-1.480;2022-10-19T16:47:52;13.40;99.90
21259;DHT22;10787;53.364;-1.480;2022-10-19T16:50:18;13.30;99.90
21259;DHT22;10787;53.364;-1.480;2022-10-19T16:52:44;13.30;99.90
21259;DHT22;10787;53.364;-1.480;2022-10-19T16:55:13;13.30;99.90
21259;DHT22;10787;53.364;-1.480;2022-10-19T16:57:40;13.20;99.90
21259;DHT22;10787;53.364;-1.480;2022-10-19T17:00:06;13.10;99.90
21259;DHT22;10787;53.364;-1.480;2022-10-19T17:02:34;13.10;99.90
21259;DHT22;10787;53.364;-1.480;2022-10-19T17:05:00;13.00;99.90
21259;DHT22;10787;53.364;-1.480;2022-10-19T17:07:26;12.90;99.90
21259;DHT22;10787;53.364;-1.480;2022-10-19T17:09:52;12.90;99.90
21259;DHT22;10787;53.364;-1.480;2022-10-19T17:12:18;12.80;99.90
21259;DHT22;10787;53.364;-1.480;2022-10-19T17:14:44;12.80;99.90
21259;DHT22;10787;53.364;-1.480;2022-10-19T17:17:10;12.70;99.90
21259;DHT22;10787;53.364;-1.480;2022-10-19T17:19:36;12.80;99.90
21259;DHT22;10787;53.364;-1.480;2022-10-19T17:22:02;12.90;99.90
21259;DHT22;10787;53.364;-1.480;2022-10-19T17:24:29;13.00;99.90
21259;DHT22;10787;53.364;-1.480;2022-10-19T17:26:55;12.90;99.90
21259;DHT22;10787;53.364;-1.480;2022-10-19T17:29:22;12.90;99.90
21259;DHT22;10787;53.364;-1.480;2022-10-19T17:31:49;12.90;99.90
21259;DHT22;10787;53.364;-1.480;2022-10-19T17:34:15;12.80;99.90
21259;DHT22;10787;53.364;-1.480;2022-10-19T17:36:42;12.80;99.90
21259;DHT22;10787;53.364;-1.480;2022-10-19T17:39:13;12.80;99.90
21259;DHT22;10787;53.364;-1.480;2022-10-19T17:41:39;12.80;99.90
21259;DHT22;10787;53.364;-1.480;2022-10-19T17:44:05;12.80;99.90
21259;DHT22;10787;53.364;-1.480;2022-10-19T17:46:33;12.80;99.90
21259;DHT22;10787;53.364;-1.480;2022-10-19T17:48:59;12.70;99.90
21259;DHT22;10787;53.364;-1.480;2022-10-19T17:51:28;12.70;99.90
21259;DHT22;10787;53.364;-1.480;2022-10-19T17:53:56;12.70;99.90
21259;DHT22;10787;53.364;-1.480;2022-10-19T17:56:23;12.70;99.90
21259;DHT22;10787;53.364;-1.480;2022-10-19T17:58:50;12.70;99.90
21259;DHT22;10787;53.364;-1.480;2022-10-19T18:01:17;12.60;99.90
21259;DHT22;10787;53.364;-1.480;2022-10-19T18:03:43;12.60;99.90
21259;DHT22;10787;53.364;-1.480;2022-10-19T18:06:30;12.60;99.90
21259;DHT22;10787;53.364;-1.480;2022-10-19T18:08:58;12.60;99.90
21259;DHT22;10787;53.364;-1.480;2022-10-19T18:11:25;12.50;99.90
21259;DHT22;10787;53.364;-1.480;2022-10-19T18:13:53;12.50;99.90
21259;DHT22;10787;53.364;-1.480;2022-10-19T18:16:28;12.50;99.90
21259;DHT22;10787;53.364;-1.480;2022-10-19T18:18:55;12.50;99.90
21259;DHT22;10787;53.364;-1.480;2022-10-19T18:21:24;12.40;99.90
21259;DHT22;10787;53.364;-1.480;2022-10-19T18:23:51;12.50;99.90
21259;DHT22;10787;53.364;-1.480;2022-10-19T18:26:20;12.40;99.90
21259;DHT22;10787;53.364;-1.480;2022-10-19T18:28:48;12.40;99.90
21259;DHT22;10787;53.364;-1.480;2022-10-19T18:31:17;12.40;99.90
21259;DHT22;10787;53.364;-1.480;2022-10-19T18:33:45;12.30;99.90